sensor_id;sensor_type;location;lat;lon;timestamp;pressure;altitude;pressure_sealevel;temperature;humidity
28306;BME280;7516;43.570;1.448;2024-02-14T00:01:17;100359.16;;;7.63;100.00
28306;BME280;7516;43.570;1.448;2024-02-14T00:03:44;100362.16;;;7.59;100.00
28306;BME280;7516;43.570;1.448;2024-02-14T00:06:12;100361.09;;;7.61;100.00
28306;BME280;7516;43.570;1.448;2024-02-14T00:08:39;100365.22;;;7.64;100.00
28306;BME280;7516;43.570;1.448;2024-02-14T00:11:07;100353.38;;;7.60;100.00
28306;BME280;7516;43.570;1.448;2024-02-14T00:13:34;100363.94;;;7.58;100.00
28306;BME280;7516;43.570;1.448;2024-02-14T00:16:03;100370.94;;;7.57;100.00
28306;BME280;7516;43.570;1.448;2024-02-14T00:18:33;100376.59;;;7.53;100.00
28306;BME280;7516;43.570;1.448;2024-02-14T00:21:01;100378.38;;;7.52;100.00
28306;BME280;7516;43.570;1.448;2024-02-14T00:23:28;100380.97;;;7.52;100.00
28306;BME280;7516;43.570;1.448;2024-02-14T00:25:56;100380.56;;;7.57;100.00
28306;BME280;7516;43.570;1.448;2024-02-14T00:28:23;100390.16;;;7.56;100.00
28306;BME280;7516;43.570;1.448;2024-02-14T00:30:52;100392.38;;;7.51;100.00
28306;BME280;7516;43.570;1.448;2024-02-14T00:33:20;100393.59;;;7.57;100.00
28306;BME280;7516;43.570;1.448;2024-02-14T00:35:49;100405.56;;;7.60;100.00
28306;BME280;7516;43.570;1.448;2024-02-14T00:38:17;100404.44;;;7.52;100.00
28306;BME280;7516;43.570;1.448;2024-02-14T00:40:44;100404.56;;;7.51;100.00
28306;BME280;7516;43.570;1.448;2024-02-14T00:43:12;100397.59;;;7.51;100.00
28306;BME280;7516;43.570;1.448;2024-02-14T00:45:40;100389.34;;;7.46;100.00
28306;BME280;7516;43.570;1.448;2024-02-14T00:48:07;100376.44;;;7.35;100.00
28306;BME280;7516;43.570;1.448;2024-02-14T00:50:35;100380.00;;;7.34;100.00
28306;BME280;7516;43.570;1.448;2024-02-14T00:53:05;100387.00;;;7.34;100.00
28306;BME280;7516;43.570;1.448;2024-02-14T00:55:32;100376.69;;;7.32;100.00
28306;BME280;7516;43.570;1.448;2024-02-14T00:58:00;100382.31;;;7.28;100.00
28306;BME280;7516;43.570;1.448;2024-02-14T01:00:28;100377.22;;;7.26;100.00
28306;BME280;7516;43.570;1.448;2024-02-14T01:02:55;100382.16;;;7.20;100.00
28306;BME280;7516;43.570;1.448;2024-02-14T01:05:23;100378.03;;;7.17;100.00
28306;BME280;7516;43.570;1.448;2024-02-14T01:07:51;100380.91;;;7.14;100.00
28306;BME280;7516;43.570;1.448;2024-02-14T01:10:21;100380.91;;;7.14;100.00
28306;BME280;7516;43.570;1.448;2024-02-14T01:12:48;100379.94;;;7.15;100.00
28306;BME280;7516;43.570;1.448;2024-02-14T01:15:16;100375.97;;;7.11;100.00
28306;BME280;7516;43.570;1.448;2024-02-14T01:17:43;100378.00;;;7.07;100.00
28306;BME280;7516;43.570;1.448;2024-02-14T01:20:13;100371.72;;;7.10;100.00
28306;BME280;7516;43.570;1.448;2024-02-14T01:22:41;100374.03;;;7.13;100.00
28306;BME280;7516;43.570;1.448;2024-02-14T01:25:09;100372.66;;;7.09;100.00
28306;BME280;7516;43.570;1.448;2024-02-14T01:27:40;100361.81;;;7.04;100.00
28306;BME280;7516;43.570;1.448;2024-02-14T01:30:10;100364.00;;;6.99;100.00
28306;BME280;7516;43.570;1.448;2024-02-14T01:32:37;100356.31;;;6.97;100.00
28306;BME280;7516;43.570;1.448;2024-02-14T01:35:05;100363.47;;;7.05;100.00
28306;BME280;7516;43.570;1.448;2024-02-14T01:37:33;100348.25;;;7.00;100.00
28306;BME280;7516;43.570;1.448;2024-02-14T01:40:01;100356.19;;;6.99;100.00
28306;BME280;7516;43.570;1.448;2024-02-14T01:42:29;100358.22;;;6.95;100.00
28306;BME280;7516;43.570;1.448;2024-02-14T01:44:58;100352.22;;;6.95;100.00
28306;BME280;7516;43.570;1.448;2024-02-14T01:47:25;100345.59;;;6.91;100.00
28306;BME280;7516;43.570;1.448;2024-02-14T01:49:53;100352.84;;;6.87;100.00
28306;BME280;7516;43.570;1.448;2024-02-14T01:52:21;100351.63;;;6.91;100.00
28306;BME280;7516;43.570;1.448;2024-02-14T01:54:49;100350.81;;;6.91;100.00
28306;BME280;7516;43.570;1.448;2024-02-14T01:57:16;100352.19;;;6.85;100.00
28306;BME280;7516;43.570;1.448;2024-02-14T01:59:44;100362.31;;;6.88;100.00
28306;BME280;7516;43.570;1.448;2024-02-14T02:02:13;100357.94;;;6.89;100.00
28306;BME280;7516;43.570;1.448;2024-02-14T02:04:42;100367.41;;;6.90;100.00
28306;BME280;7516;43.570;1.448;2024-02-14T02:07:09;100364.22;;;6.86;100.00
28306;BME280;7516;43.570;1.448;2024-02-14T02:09:37;100365.03;;;6.87;100.00
28306;BME280;7516;43.570;1.448;2024-02-14T02:12:05;100363.56;;;6.84;100.00
28306;BME280;7516;43.570;1.448;2024-02-14T02:14:33;100366.16;;;6.84;100.00
28306;BME280;7516;43.570;1.448;2024-02-14T02:17:01;100362.28;;;6.78;100.00
28306;BME280;7516;43.570;1.448;2024-02-14T02:19:34;100355.25;;;6.69;100.00
28306;BME280;7516;43.570;1.448;2024-02-14T02:22:02;100349.38;;;6.67;100.00
28306;BME280;7516;43.570;1.448;2024-02-14T02:24:32;100352.94;;;6.66;100.00
28306;BME280;7516;43.570;1.448;2024-02-14T02:26:59;100351.81;;;6.69;100.00
28306;BME280;7516;43.570;1.448;2024-02-14T02:29:27;100348.97;;;6.72;100.00
28306;BME280;7516;43.570;1.448;2024-02-14T02:31:54;100342.22;;;6.69;100.00
28306;BME280;7516;43.570;1.448;2024-02-14T02:34:22;100342.22;;;6.69;100.00
28306;BME280;7516;43.570;1.448;2024-02-14T02:36:49;100340.59;;;6.68;100.00
28306;BME280;7516;43.570;1.448;2024-02-14T02:39:17;100347.97;;;6.63;100.00
28306;BME280;7516;43.570;1.448;2024-02-14T02:41:46;100346.31;;;6.62;100.00
28306;BME280;7516;43.570;1.448;2024-02-14T02:44:15;100332.59;;;6.60;100.00
28306;BME280;7516;43.570;1.448;2024-02-14T02:46:43;100341.13;;;6.62;100.00
28306;BME280;7516;43.570;1.448;2024-02-14T02:49:12;100336.03;;;6.61;100.00
28306;BME280;7516;43.570;1.448;2024-02-14T02:51:40;100344.25;;;6.56;100.00
28306;BME280;7516;43.570;1.448;2024-02-14T02:54:07;100341.78;;;6.55;100.00
28306;BME280;7516;43.570;1.448;2024-02-14T02:56:37;100336.97;;;6.50;100.00
28306;BME280;7516;43.570;1.448;2024-02-14T02:59:08;100338.16;;;6.46;100.00
28306;BME280;7516;43.570;1.448;2024-02-14T03:01:36;100349.28;;;6.48;100.00
28306;BME280;7516;43.570;1.448;2024-02-14T03:04:03;100352.00;;;6.47;100.00
28306;BME280;7516;43.570;1.448;2024-02-14T03:06:31;100349.53;;;6.45;100.00
28306;BME280;7516;43.570;1.448;2024-02-14T03:08:59;100349.22;;;6.38;100.00
28306;BME280;7516;43.570;1.448;2024-02-14T03:11:27;100337.56;;;6.33;100.00
28306;BME280;7516;43.570;1.448;2024-02-14T03:13:54;100342.91;;;6.31;100.00
28306;BME280;7516;43.570;1.448;2024-02-14T03:16:23;100335.22;;;6.30;100.00
28306;BME280;7516;43.570;1.448;2024-02-14T03:18:51;100335.34;;;6.28;100.00
28306;BME280;7516;43.570;1.448;2024-02-14T03:21:19;100337.13;;;6.28;100.00
28306;BME280;7516;43.570;1.448;2024-02-14T03:23:47;100330.25;;;6.27;100.00
28306;BME280;7516;43.570;1.448;2024-02-14T03:26:14;100331.50;;;6.23;100.00
28306;BME280;7516;43.570;1.448;2024-02-14T03:28:42;100322.56;;;6.25;100.00
28306;BME280;7516;43.570;1.448;2024-02-14T03:31:10;100322.75;;;6.24;100.00
28306;BME280;7516;43.570;1.448;2024-02-14T03:33:43;100315.19;;;6.21;100.00
28306;BME280;7516;43.570;1.448;2024-02-14T03:36:11;100317.91;;;6.19;100.00
28306;BME280;7516;43.570;1.448;2024-02-14T03:38:38;100322.03;;;6.22;100.00
28306;BME280;7516;43.570;1.448;2024-02-14T03:41:07;100321.22;;;6.21;100.00
28306;BME280;7516;43.570;1.448;2024-02-14T03:43:34;100309.16;;;6.20;100.00
28306;BME280;7516;43.570;1.448;2024-02-14T03:46:02;100318.47;;;6.23;100.00
28306;BME280;7516;43.570;1.448;2024-02-14T03:48:31;100314.22;;;6.22;100.00
28306;BME280;7516;43.570;1.448;2024-02-14T03:51:01;100316.25;;;6.18;100.00
28306;BME280;7516;43.570;1.448;2024-02-14T03:53:29;100314.59;;;6.17;100.00
28306;BME280;7516;43.570;1.448;2024-02-14T03:55:57;100312.13;;;6.16;100.00
28306;BME280;7516;43.570;1.448;2024-02-14T03:58:25;100309.97;;;6.21;100.00
28306;BME280;7516;43.570;1.448;2024-02-14T04:00:52;100308.56;;;6.17;100.00
28306;BME280;7516;43.570;1.448;2024-02-14T04:03:19;100310.22;;;6.18;100.00
28306;BME280;7516;43.570;1.448;2024-02-14T04:05:47;100305.28;;;6.15;100.00
28306;BME280;7516;43.570;1.448;2024-02-14T04:08:16;100299.25;;;6.14;100.00
28306;BME280;7516;43.570;1.448;2024-02-14T04:10:44;100302.13;;;6.11;100.00
28306;BME280;7516;43.570;1.448;2024-02-14T04:13:12;100308.97;;;6.12;100.00
28306;BME280;7516;43.570;1.448;2024-02-14T04:15:39;100308.84;;;6.14;100.00
28306;BME280;7516;43.570;1.448;2024-02-14T04:18:09;100309.50;;;6.16;100.00
28306;BME280;7516;43.570;1.448;2024-02-14T04:20:36;100303.66;;;6.14;100.00
28306;BME280;7516;43.570;1.448;2024-02-14T04:23:04;100303.88;;;6.11;100.00
28306;BME280;7516;43.570;1.448;2024-02-14T04:25:34;100312.41;;;6.13;100.00
28306;BME280;7516;43.570;1.448;2024-02-14T04:28:03;100315.13;;;6.11;100.00
28306;BME280;7516;43.570;1.448;2024-02-14T04:30:31;100311.81;;;6.09;100.00
28306;BME280;7516;43.570;1.448;2024-02-14T04:32:58;100315.00;;;6.13;100.00
28306;BME280;7516;43.570;1.448;2024-02-14T04:35:26;100318.31;;;6.15;100.00
28306;BME280;7516;43.570;1.448;2024-02-14T04:37:53;100318.44;;;6.13;100.00
28306;BME280;7516;43.570;1.448;2024-02-14T04:40:21;100322.81;;;6.13;100.00
28306;BME280;7516;43.570;1.448;2024-02-14T04:42:50;100323.50;;;6.15;100.00
28306;BME280;7516;43.570;1.448;2024-02-14T04:45:17;100332.50;;;6.11;100.00
28306;BME280;7516;43.570;1.448;2024-02-14T04:47:45;100324.28;;;6.06;100.00
28306;BME280;7516;43.570;1.448;2024-02-14T04:50:12;100324.63;;;6.01;100.00
28306;BME280;7516;43.570;1.448;2024-02-14T04:52:40;100326.22;;;5.92;100.00
28306;BME280;7516;43.570;1.448;2024-02-14T04:55:08;100321.97;;;5.91;100.00
28306;BME280;7516;43.570;1.448;2024-02-14T04:57:35;100324.69;;;5.90;100.00
28306;BME280;7516;43.570;1.448;2024-02-14T05:00:06;100329.22;;;5.88;100.00
28306;BME280;7516;43.570;1.448;2024-02-14T05:02:35;100327.28;;;5.90;100.00
28306;BME280;7516;43.570;1.448;2024-02-14T05:05:03;100338.28;;;5.93;100.00
28306;BME280;7516;43.570;1.448;2024-02-14T05:07:31;100329.03;;;6.00;100.00
28306;BME280;7516;43.570;1.448;2024-02-14T05:10:00;100331.06;;;5.97;100.00
28306;BME280;7516;43.570;1.448;2024-02-14T05:12:27;100329.06;;;5.89;100.00
28306;BME280;7516;43.570;1.448;2024-02-14T05:14:55;100332.50;;;5.90;100.00
28306;BME280;7516;43.570;1.448;2024-02-14T05:17:24;100327.91;;;5.82;100.00
28306;BME280;7516;43.570;1.448;2024-02-14T05:19:51;100325.31;;;5.82;100.00
28306;BME280;7516;43.570;1.448;2024-02-14T05:22:19;100329.13;;;5.78;100.00
28306;BME280;7516;43.570;1.448;2024-02-14T05:24:47;100326.66;;;5.77;100.00
28306;BME280;7516;43.570;1.448;2024-02-14T05:27:14;100327.47;;;5.77;100.00
28306;BME280;7516;43.570;1.448;2024-02-14T05:29:42;100324.28;;;5.74;100.00
28306;BME280;7516;43.570;1.448;2024-02-14T05:32:09;100327.97;;;5.71;100.00
28306;BME280;7516;43.570;1.448;2024-02-14T05:34:38;100332.34;;;5.71;100.00
28306;BME280;7516;43.570;1.448;2024-02-14T05:37:06;100332.34;;;5.71;100.00
28306;BME280;7516;43.570;1.448;2024-02-14T05:39:34;100335.06;;;5.69;100.00
28306;BME280;7516;43.570;1.448;2024-02-14T05:42:01;100333.41;;;5.68;100.00
28306;BME280;7516;43.570;1.448;2024-02-14T05:44:30;100329.16;;;5.67;100.00
28306;BME280;7516;43.570;1.448;2024-02-14T05:46:58;100331.19;;;5.63;100.00
28306;BME280;7516;43.570;1.448;2024-02-14T05:49:26;100332.00;;;5.64;100.00
28306;BME280;7516;43.570;1.448;2024-02-14T05:51:55;100326.25;;;5.60;100.00
28306;BME280;7516;43.570;1.448;2024-02-14T05:54:22;100329.22;;;5.56;100.00
28306;BME280;7516;43.570;1.448;2024-02-14T05:56:51;100327.56;;;5.55;100.00
28306;BME280;7516;43.570;1.448;2024-02-14T05:59:18;100321.53;;;5.54;100.00
28306;BME280;7516;43.570;1.448;2024-02-14T06:01:47;100321.41;;;5.56;100.00
28306;BME280;7516;43.570;1.448;2024-02-14T06:04:14;100321.81;;;5.51;100.00
28306;BME280;7516;43.570;1.448;2024-02-14T06:06:42;100318.72;;;5.46;100.00
28306;BME280;7516;43.570;1.448;2024-02-14T06:09:11;100321.47;;;5.45;100.00
28306;BME280;7516;43.570;1.448;2024-02-14T06:11:39;100326.53;;;5.46;100.00
28306;BME280;7516;43.570;1.448;2024-02-14T06:14:06;100330.78;;;5.47;100.00
28306;BME280;7516;43.570;1.448;2024-02-14T06:16:36;100334.72;;;5.42;100.00
28306;BME280;7516;43.570;1.448;2024-02-14T06:19:04;100336.59;;;5.40;100.00
28306;BME280;7516;43.570;1.448;2024-02-14T06:21:32;100342.75;;;5.39;100.00
28306;BME280;7516;43.570;1.448;2024-02-14T06:24:00;100343.69;;;5.38;100.00
28306;BME280;7516;43.570;1.448;2024-02-14T06:26:31;100357.16;;;5.43;100.00
28306;BME280;7516;43.570;1.448;2024-02-14T06:28:59;100365.19;;;5.40;100.00
28306;BME280;7516;43.570;1.448;2024-02-14T06:31:26;100364.94;;;5.43;100.00
28306;BME280;7516;43.570;1.448;2024-02-14T06:33:54;100372.16;;;5.39;100.00
28306;BME280;7516;43.570;1.448;2024-02-14T06:36:21;100370.16;;;5.43;100.00
28306;BME280;7516;43.570;1.448;2024-02-14T06:38:49;100368.38;;;5.43;100.00
28306;BME280;7516;43.570;1.448;2024-02-14T06:41:17;100363.28;;;5.42;100.00
28306;BME280;7516;43.570;1.448;2024-02-14T06:43:48;100371.44;;;5.37;100.00
28306;BME280;7516;43.570;1.448;2024-02-14T06:46:15;100378.28;;;5.38;100.00
28306;BME280;7516;43.570;1.448;2024-02-14T06:48:43;100371.22;;;5.40;100.00
28306;BME280;7516;43.570;1.448;2024-02-14T06:51:11;100376.28;;;5.42;100.00
28306;BME280;7516;43.570;1.448;2024-02-14T06:53:38;100374.88;;;5.38;100.00
28306;BME280;7516;43.570;1.448;2024-02-14T06:56:06;100378.69;;;5.34;100.00
28306;BME280;7516;43.570;1.448;2024-02-14T06:58:34;100374.03;;;5.37;100.00
28306;BME280;7516;43.570;1.448;2024-02-14T07:01:03;100376.28;;;5.42;100.00
28306;BME280;7516;43.570;1.448;2024-02-14T07:03:30;100380.44;;;5.44;100.00
28306;BME280;7516;43.570;1.448;2024-02-14T07:05:58;100388.56;;;5.40;100.00
28306;BME280;7516;43.570;1.448;2024-02-14T07:08:25;100383.69;;;5.46;100.00
28306;BME280;7516;43.570;1.448;2024-02-14T07:10:54;100389.72;;;5.47;100.00
28306;BME280;7516;43.570;1.448;2024-02-14T07:13:22;100394.81;;;5.48;100.00
28306;BME280;7516;43.570;1.448;2024-02-14T07:15:51;100394.47;;;5.53;100.00
28306;BME280;7516;43.570;1.448;2024-02-14T07:18:20;100396.06;;;5.65;100.00
28306;BME280;7516;43.570;1.448;2024-02-14T07:20:47;100397.00;;;5.64;100.00
28306;BME280;7516;43.570;1.448;2024-02-14T07:23:15;100393.94;;;5.70;100.00
28306;BME280;7516;43.570;1.448;2024-02-14T07:25:42;100392.47;;;5.77;100.00
28306;BME280;7516;43.570;1.448;2024-02-14T07:28:11;100396.72;;;5.78;100.00
28306;BME280;7516;43.570;1.448;2024-02-14T07:30:38;100396.13;;;5.75;100.00
28306;BME280;7516;43.570;1.448;2024-02-14T07:33:06;100398.03;;;5.73;100.00
28306;BME280;7516;43.570;1.448;2024-02-14T07:35:36;100404.66;;;5.77;100.00
28306;BME280;7516;43.570;1.448;2024-02-14T07:38:03;100402.25;;;5.85;100.00
28306;BME280;7516;43.570;1.448;2024-02-14T07:40:31;100398.69;;;5.86;100.00
28306;BME280;7516;43.570;1.448;2024-02-14T07:42:59;100399.28;;;5.89;100.00
28306;BME280;7516;43.570;1.448;2024-02-14T07:45:27;100402.94;;;5.98;100.00
28306;BME280;7516;43.570;1.448;2024-02-14T07:47:54;100401.59;;;6.03;100.00
28306;BME280;7516;43.570;1.448;2024-02-14T07:50:22;100407.13;;;6.10;100.00
28306;BME280;7516;43.570;1.448;2024-02-14T07:52:51;100417.59;;;6.20;100.00
28306;BME280;7516;43.570;1.448;2024-02-14T07:55:18;100427.50;;;6.26;100.00
28306;BME280;7516;43.570;1.448;2024-02-14T07:57:46;100433.72;;;6.34;100.00
28306;BME280;7516;43.570;1.448;2024-02-14T08:00:14;100433.78;;;6.44;100.00
28306;BME280;7516;43.570;1.448;2024-02-14T08:02:48;100434.25;;;6.49;100.00
28306;BME280;7516;43.570;1.448;2024-02-14T08:05:16;100436.44;;;6.54;100.00
28306;BME280;7516;43.570;1.448;2024-02-14T08:07:45;100433.19;;;6.61;100.00
28306;BME280;7516;43.570;1.448;2024-02-14T08:10:14;100431.41;;;6.62;100.00
28306;BME280;7516;43.570;1.448;2024-02-14T08:12:42;100438.16;;;6.64;100.00
28306;BME280;7516;43.570;1.448;2024-02-14T08:15:09;100429.94;;;6.69;100.00
28306;BME280;7516;43.570;1.448;2024-02-14T08:17:37;100434.25;;;6.79;100.00
28306;BME280;7516;43.570;1.448;2024-02-14T08:20:06;100439.63;;;6.88;100.00
28306;BME280;7516;43.570;1.448;2024-02-14T08:22:33;100443.22;;;6.96;100.00
28306;BME280;7516;43.570;1.448;2024-02-14T08:25:01;100437.53;;;7.02;100.00
28306;BME280;7516;43.570;1.448;2024-02-14T08:27:31;100434.25;;;7.10;100.00
28306;BME280;7516;43.570;1.448;2024-02-14T08:29:58;100432.06;;;7.15;100.00
28306;BME280;7516;43.570;1.448;2024-02-14T08:32:26;100430.16;;;7.17;100.00
28306;BME280;7516;43.570;1.448;2024-02-14T08:34:53;100434.00;;;7.23;100.00
28306;BME280;7516;43.570;1.448;2024-02-14T08:37:21;100429.66;;;7.33;100.00
28306;BME280;7516;43.570;1.448;2024-02-14T08:39:50;100429.94;;;7.39;100.00
28306;BME280;7516;43.570;1.448;2024-02-14T08:42:18;100416.50;;;7.44;100.00
28306;BME280;7516;43.570;1.448;2024-02-14T08:44:47;100423.41;;;7.54;100.00
28306;BME280;7516;43.570;1.448;2024-02-14T08:47:14;100427.25;;;7.60;100.00
28306;BME280;7516;43.570;1.448;2024-02-14T08:49:42;100431.78;;;7.68;100.00
28306;BME280;7516;43.570;1.448;2024-02-14T08:52:10;100427.00;;;7.73;100.00
28306;BME280;7516;43.570;1.448;2024-02-14T08:54:38;100426.31;;;7.80;100.00
28306;BME280;7516;43.570;1.448;2024-02-14T08:57:05;100432.50;;;7.89;100.00
28306;BME280;7516;43.570;1.448;2024-02-14T08:59:33;100426.72;;;7.95;100.00
28306;BME280;7516;43.570;1.448;2024-02-14T09:02:02;100431.94;;;8.05;100.00
28306;BME280;7516;43.570;1.448;2024-02-14T09:04:30;100429.19;;;8.06;100.00
28306;BME280;7516;43.570;1.448;2024-02-14T09:06:58;100436.06;;;8.07;100.00
28306;BME280;7516;43.570;1.448;2024-02-14T09:09:25;100425.88;;;8.14;100.00
28306;BME280;7516;43.570;1.448;2024-02-14T09:11:53;100424.09;;;8.24;100.00
28306;BME280;7516;43.570;1.448;2024-02-14T09:14:21;100428.22;;;8.36;100.00
28306;BME280;7516;43.570;1.448;2024-02-14T09:16:49;100431.13;;;8.43;100.00
28306;BME280;7516;43.570;1.448;2024-02-14T09:19:18;100427.94;;;8.49;100.00
28306;BME280;7516;43.570;1.448;2024-02-14T09:21:45;100419.25;;;8.58;100.00
28306;BME280;7516;43.570;1.448;2024-02-14T09:24:13;100413.59;;;8.62;100.00
28306;BME280;7516;43.570;1.448;2024-02-14T09:26:41;100418.41;;;8.67;100.00
28306;BME280;7516;43.570;1.448;2024-02-14T09:29:09;100417.31;;;8.70;100.00
28306;BME280;7516;43.570;1.448;2024-02-14T09:31:37;100415.63;;;8.78;100.00
28306;BME280;7516;43.570;1.448;2024-02-14T09:34:04;100413.63;;;8.90;100.00
28306;BME280;7516;43.570;1.448;2024-02-14T09:36:33;100416.09;;;8.91;100.00
28306;BME280;7516;43.570;1.448;2024-02-14T09:39:01;100416.50;;;8.96;100.00
28306;BME280;7516;43.570;1.448;2024-02-14T09:41:37;100409.72;;;9.03;100.00
28306;BME280;7516;43.570;1.448;2024-02-14T09:44:06;100410.94;;;9.09;100.00
28306;BME280;7516;43.570;1.448;2024-02-14T09:46:36;100410.50;;;9.14;100.00
28306;BME280;7516;43.570;1.448;2024-02-14T09:49:04;100412.09;;;9.24;100.00
28306;BME280;7516;43.570;1.448;2024-02-14T09:51:34;100413.69;;;9.35;100.00
28306;BME280;7516;43.570;1.448;2024-02-14T09:54:02;100404.28;;;9.42;100.00
28306;BME280;7516;43.570;1.448;2024-02-14T09:56:30;100406.00;;;9.51;100.00
28306;BME280;7516;43.570;1.448;2024-02-14T09:58:58;100394.50;;;9.62;100.00
28306;BME280;7516;43.570;1.448;2024-02-14T10:01:27;100396.44;;;9.77;100.00
28306;BME280;7516;43.570;1.448;2024-02-14T10:03:55;100405.06;;;9.88;100.00
28306;BME280;7516;43.570;1.448;2024-02-14T10:06:22;100396.63;;;9.94;100.00
28306;BME280;7516;43.570;1.448;2024-02-14T10:08:53;100394.06;;;10.02;100.00
28306;BME280;7516;43.570;1.448;2024-02-14T10:11:21;100396.06;;;10.08;100.00
28306;BME280;7516;43.570;1.448;2024-02-14T10:13:50;100399.56;;;10.16;100.00
28306;BME280;7516;43.570;1.448;2024-02-14T10:16:19;100396.84;;;10.18;100.00
28306;BME280;7516;43.570;1.448;2024-02-14T10:18:47;100393.59;;;10.24;100.00
28306;BME280;7516;43.570;1.448;2024-02-14T10:21:16;100397.78;;;10.35;100.00
28306;BME280;7516;43.570;1.448;2024-02-14T10:23:45;100393.41;;;10.43;100.00
28306;BME280;7516;43.570;1.448;2024-02-14T10:26:17;100395.09;;;10.52;100.00
28306;BME280;7516;43.570;1.448;2024-02-14T10:28:45;100401.66;;;10.56;100.00
28306;BME280;7516;43.570;1.448;2024-02-14T10:31:12;100392.88;;;10.66;100.00
28306;BME280;7516;43.570;1.448;2024-02-14T10:33:40;100388.16;;;10.69;100.00
28306;BME280;7516;43.570;1.448;2024-02-14T10:36:08;100393.72;;;10.74;100.00
28306;BME280;7516;43.570;1.448;2024-02-14T10:38:40;100384.78;;;10.85;100.00
28306;BME280;7516;43.570;1.448;2024-02-14T10:41:08;100390.88;;;10.93;100.00
28306;BME280;7516;43.570;1.448;2024-02-14T10:43:39;100388.97;;;11.04;100.00
28306;BME280;7516;43.570;1.448;2024-02-14T10:46:10;100393.41;;;11.11;100.00
28306;BME280;7516;43.570;1.448;2024-02-14T10:48:39;100384.59;;;11.20;100.00
28306;BME280;7516;43.570;1.448;2024-02-14T10:51:09;100395.75;;;11.22;100.00
28306;BME280;7516;43.570;1.448;2024-02-14T10:53:41;100394.13;;;11.29;100.00
28306;BME280;7516;43.570;1.448;2024-02-14T10:56:15;100391.22;;;11.41;100.00
28306;BME280;7516;43.570;1.448;2024-02-14T10:58:47;100392.22;;;11.48;100.00
28306;BME280;7516;43.570;1.448;2024-02-14T11:01:15;100387.63;;;11.50;100.00
28306;BME280;7516;43.570;1.448;2024-02-14T11:03:44;100387.28;;;11.61;100.00
28306;BME280;7516;43.570;1.448;2024-02-14T11:06:16;100388.16;;;11.69;100.00
28306;BME280;7516;43.570;1.448;2024-02-14T11:08:55;100387.16;;;11.70;100.00
28306;BME280;7516;43.570;1.448;2024-02-14T11:11:24;100385.22;;;11.81;100.00
28306;BME280;7516;43.570;1.448;2024-02-14T11:13:54;100383.78;;;11.86;100.00
28306;BME280;7516;43.570;1.448;2024-02-14T11:16:25;100377.19;;;11.98;100.00
28306;BME280;7516;43.570;1.448;2024-02-14T11:18:54;100383.59;;;12.04;100.00
28306;BME280;7516;43.570;1.448;2024-02-14T11:21:28;100373.25;;;12.11;100.00
28306;BME280;7516;43.570;1.448;2024-02-14T11:23:57;100373.41;;;12.17;100.00
28306;BME280;7516;43.570;1.448;2024-02-14T11:26:38;100369.13;;;12.24;100.00
28306;BME280;7516;43.570;1.448;2024-02-14T11:29:07;100359.56;;;12.31;100.00
28306;BME280;7516;43.570;1.448;2024-02-14T11:31:36;100364.50;;;12.42;100.00
28306;BME280;7516;43.570;1.448;2024-02-14T11:34:04;100358.38;;;12.50;100.00
28306;BME280;7516;43.570;1.448;2024-02-14T11:36:32;100349.53;;;12.51;100.00
28306;BME280;7516;43.570;1.448;2024-02-14T11:39:03;100349.03;;;12.56;100.00
28306;BME280;7516;43.570;1.448;2024-02-14T11:41:33;100338.78;;;12.69;100.00
28306;BME280;7516;43.570;1.448;2024-02-14T11:44:02;100337.59;;;12.79;100.00
28306;BME280;7516;43.570;1.448;2024-02-14T11:46:32;100345.13;;;12.91;100.00
28306;BME280;7516;43.570;1.448;2024-02-14T11:49:00;100337.50;;;12.96;100.00
28306;BME280;7516;43.570;1.448;2024-02-14T11:51:29;100335.22;;;13.01;100.00
28306;BME280;7516;43.570;1.448;2024-02-14T11:53:57;100331.22;;;13.05;100.00
28306;BME280;7516;43.570;1.448;2024-02-14T11:56:30;100332.53;;;13.09;100.00
28306;BME280;7516;43.570;1.448;2024-02-14T11:59:00;100323.44;;;13.19;100.00
28306;BME280;7516;43.570;1.448;2024-02-14T12:01:31;100319.97;;;13.27;100.00
28306;BME280;7516;43.570;1.448;2024-02-14T12:04:00;100317.72;;;13.39;100.00
28306;BME280;7516;43.570;1.448;2024-02-14T12:06:28;100312.94;;;13.42;100.00
28306;BME280;7516;43.570;1.448;2024-02-14T12:08:57;100310.72;;;13.54;100.00
28306;BME280;7516;43.570;1.448;2024-02-14T12:11:27;100311.66;;;13.61;100.00
28306;BME280;7516;43.570;1.448;2024-02-14T12:13:55;100301.38;;;13.66;100.00
28306;BME280;7516;43.570;1.448;2024-02-14T12:16:22;100297.25;;;13.72;100.00
28306;BME280;7516;43.570;1.448;2024-02-14T12:19:04;100287.31;;;13.74;100.00
28306;BME280;7516;43.570;1.448;2024-02-14T12:21:35;100281.88;;;13.75;100.00
28306;BME280;7516;43.570;1.448;2024-02-14T12:24:04;100283.28;;;13.86;100.00
28306;BME280;7516;43.570;1.448;2024-02-14T12:26:31;100281.28;;;13.88;100.00
28306;BME280;7516;43.570;1.448;2024-02-14T12:29:02;100276.50;;;14.06;100.00
28306;BME280;7516;43.570;1.448;2024-02-14T12:31:31;100266.13;;;14.05;100.00
28306;BME280;7516;43.570;1.448;2024-02-14T12:34:00;100272.66;;;14.09;100.00
28306;BME280;7516;43.570;1.448;2024-02-14T12:36:28;100268.59;;;14.06;100.00
28306;BME280;7516;43.570;1.448;2024-02-14T12:38:56;100261.84;;;14.18;100.00
28306;BME280;7516;43.570;1.448;2024-02-14T12:41:24;100257.47;;;14.25;100.00
28306;BME280;7516;43.570;1.448;2024-02-14T12:43:55;100254.97;;;14.32;100.00
28306;BME280;7516;43.570;1.448;2024-02-14T12:46:23;100246.47;;;14.37;100.00
28306;BME280;7516;43.570;1.448;2024-02-14T12:48:50;100248.41;;;14.43;100.00
28306;BME280;7516;43.570;1.448;2024-02-14T12:51:19;100237.78;;;14.51;100.00
28306;BME280;7516;43.570;1.448;2024-02-14T12:53:47;100239.75;;;14.63;100.00
28306;BME280;7516;43.570;1.448;2024-02-14T12:56:14;100234.94;;;14.67;100.00
28306;BME280;7516;43.570;1.448;2024-02-14T12:58:42;100228.91;;;14.73;100.00
28306;BME280;7516;43.570;1.448;2024-02-14T13:01:10;100232.00;;;14.77;100.00
28306;BME280;7516;43.570;1.448;2024-02-14T13:03:38;100229.13;;;14.93;100.00